Time;durP1;ratioP1;P1;durP2;ratioP2;P2;SDS_P1;SDS_P2;PMS_P1;PMS_P2;Temp;Humidity;BMP_temperature;BMP_pressure;BME280_temperature;BME280_humidity;BME280_pressure;Samples;Min_cycle;Max_cycle;Signal;HPM_P1;HPM_P2
2021/11/20 00:00:54;;;;;;;2.05;1.95;;;;;;;;;;7332704;19;153679;-13
2021/11/20 00:03:26;;;;;;;2.13;2.03;;;;;;;;;;7332472;19;161845;-11
2021/11/20 00:05:58;;;;;;;2.08;1.98;;;;;;;;;;7331061;19;162459;-13
2021/11/20 00:08:29;;;;;;;2.05;1.95;;;;;;;;;;7332223;19;153980;-14
2021/11/20 00:11:07;;;;;;;2.00;1.90;;;;;;;;;;7332408;19;153637;-13
2021/11/20 00:13:41;;;;;;;1.83;1.80;;;;;;;;;;7332058;19;162047;-14
2021/11/20 00:16:14;;;;;;;1.48;1.48;;;;;;;;;;7331761;19;162539;-13
2021/11/20 00:18:45;;;;;;;1.85;1.75;;;;;;;;;;7332358;19;154172;-12
2021/11/20 00:21:34;;;;;;;1.70;1.70;;;;;;;;;;7331813;19;153535;-13
2021/11/20 00:24:19;;;;;;;1.88;1.77;;;;;;;;;;7331554;19;161758;-17
2021/11/20 00:26:55;;;;;;;2.00;1.90;;;;;;;;;;7331929;19;162471;-13
2021/11/20 00:29:38;;;;;;;1.63;1.60;;;;;;;;;;7329762;19;154389;-12
2021/11/20 00:32:13;;;;;;;;;;;;;;;;;;7331077;19;153654;-12
2021/11/20 00:34:47;;;;;;;1.95;1.85;;;;;;;;;;7330187;19;162136;-12
2021/11/20 00:37:18;;;;;;;1.55;1.55;;;;;;;;;;7331102;19;162495;-12
2021/11/20 00:39:50;;;;;;;1.70;1.60;;;;;;;;;;7330606;19;154047;-12
2021/11/20 00:42:24;;;;;;;2.03;1.93;;;;;;;;;;7331600;19;153536;-12
2021/11/20 00:44:56;;;;;;;1.60;1.60;;;;;;;;;;7330926;19;161752;-13
2021/11/20 00:47:27;;;;;;;1.83;1.73;;;;;;;;;;7330979;19;162391;-12
2021/11/20 00:50:00;;;;;;;1.80;1.70;;;;;;;;;;7329903;19;153741;-12
2021/11/20 00:52:31;;;;;;;1.42;1.42;;;;;;;;;;7329964;19;153672;-13
2021/11/20 00:55:03;;;;;;;1.50;1.50;;;;;;;;;;7329248;19;161762;-13
2021/11/20 00:57:37;;;;;;;1.80;1.70;;;;;;;;;;7330550;19;162708;-12
2021/11/20 01:00:11;;;;;;;1.30;1.30;;;;;;;;;;7330892;19;154148;-17
2021/11/20 01:02:44;;;;;;;1.45;1.45;;;;;;;;;;7329800;19;153482;-12
2021/11/20 01:05:18;;;;;;;1.60;1.60;;;;;;;;;;7330281;19;161927;-12
2021/11/20 01:07:50;;;;;;;1.60;1.60;;;;;;;;;;7329077;19;162422;-12
2021/11/20 01:10:34;;;;;;;1.80;1.70;;;;;;;;;;7327235;19;154034;-12
2021/11/20 01:13:10;;;;;;;1.23;1.23;;;;;;;;;;7328583;19;153495;-13
2021/11/20 01:15:45;;;;;;;1.60;1.60;;;;;;;;;;7324830;19;161939;-12
2021/11/20 01:18:19;;;;;;;1.60;1.58;;;;;;;;;;7328637;19;162620;-12
2021/11/20 01:20:50;;;;;;;;;;;;;;;;;;7329645;19;154087;-13
2021/11/20 01:23:26;;;;;;;1.60;1.60;;;;;;;;;;7329255;19;153545;-13
2021/11/20 01:26:04;;;;;;;1.10;1.10;;;;;;;;;;7328419;19;161818;-12
2021/11/20 01:28:50;;;;;;;1.30;1.30;;;;;;;;;;7327965;19;162605;-12
2021/11/20 01:31:34;;;;;;;1.58;1.58;;;;;;;;;;7325916;19;154081;-13
2021/11/20 01:34:07;;;;;;;1.45;1.45;;;;;;;;;;7328335;19;153881;-13
2021/11/20 01:36:42;;;;;;;1.27;1.27;;;;;;;;;;7329093;19;161808;-13
2021/11/20 01:39:16;;;;;;;1.30;1.30;;;;;;;;;;7327787;19;162473;-12
2021/11/20 01:42:03;;;;;;;1.40;1.33;;;;;;;;;;7327961;19;154082;-13
2021/11/20 01:44:50;;;;;;;1.30;1.30;;;;;;;;;;7328261;19;153821;-15
2021/11/20 01:47:33;;;;;;;1.15;1.15;;;;;;;;;;7327929;19;161983;-12
2021/11/20 01:50:11;;;;;;;1.50;1.50;;;;;;;;;;7326899;19;162606;-12
2021/11/20 01:52:55;;;;;;;1.42;1.38;;;;;;;;;;7328340;19;153997;-14
2021/11/20 01:55:37;;;;;;;1.38;1.38;;;;;;;;;;7328538;19;153791;-15
2021/11/20 01:58:28;;;;;;;1.42;1.42;;;;;;;;;;7328094;19;162170;-15
2021/11/20 02:01:10;;;;;;;1.30;1.30;;;;;;;;;;7327967;19;162566;-16
2021/11/20 02:03:55;;;;;;;1.20;1.20;;;;;;;;;;7327747;19;153980;-14
2021/11/20 02:06:44;;;;;;;1.20;1.20;;;;;;;;;;7327492;19;153579;-14
2021/11/20 02:09:20;;;;;;;1.10;1.10;;;;;;;;;;7327093;19;161892;-14
2021/11/20 02:12:16;;;;;;;1.08;1.08;;;;;;;;;;7324556;19;162537;-15
2021/11/20 02:14:49;;;;;;;1.20;1.20;;;;;;;;;;7327578;19;154094;-15
2021/11/20 02:17:29;;;;;;;1.17;1.17;;;;;;;;;;7327354;19;153536;-15
2021/11/20 02:20:06;;;;;;;1.30;1.30;;;;;;;;;;7327906;19;162021;-15
2021/11/20 02:22:38;;;;;;;1.10;1.10;;;;;;;;;;7329643;19;162844;-13
2021/11/20 02:25:14;;;;;;;1.30;1.30;;;;;;;;;;7334019;19;154256;-13
2021/11/20 02:28:24;;;;;;;1.10;1.10;;;;;;;;;;7331955;19;153839;-15
2021/11/20 02:31:02;;;;;;;1.05;1.05;;;;;;;;;;7332231;19;162134;-14
2021/11/20 02:33:35;;;;;;;1.20;1.20;;;;;;;;;;7333374;19;162712;-13
2021/11/20 02:36:09;;;;;;;1.10;1.10;;;;;;;;;;7333773;19;154290;-15
2021/11/20 02:38:44;;;;;;;1.13;1.13;;;;;;;;;;7334739;19;153501;-13
2021/11/20 02:41:18;;;;;;;1.00;1.00;;;;;;;;;;7333287;19;161968;-14
2021/11/20 02:43:53;;;;;;;1.15;1.15;;;;;;;;;;7333212;19;162336;-13
2021/11/20 02:46:32;;;;;;;1.10;1.10;;;;;;;;;;7333379;19;153935;-12
2021/11/20 02:49:07;;;;;;;1.10;1.10;;;;;;;;;;7334404;19;153646;-14
2021/11/20 02:52:10;;;;;;;1.00;1.00;;;;;;;;;;7330494;19;162199;-12
2021/11/20 02:54:42;;;;;;;1.05;1.05;;;;;;;;;;7332696;19;162491;-13
2021/11/20 02:57:17;;;;;;;1.00;1.00;;;;;;;;;;7332988;19;153816;-13
2021/11/20 02:59:49;;;;;;;1.00;1.00;;;;;;;;;;7332946;19;153670;-13
2021/11/20 03:02:28;;;;;;;1.00;1.00;;;;;;;;;;7332623;19;161960;-13
2021/11/20 03:05:01;;;;;;;1.10;1.10;;;;;;;;;;7333598;19;162493;-13
2021/11/20 03:07:32;;;;;;;1.10;1.10;;;;;;;;;;7332682;19;154181;-13
2021/11/20 03:10:04;;;;;;;1.02;1.02;;;;;;;;;;7332544;19;153464;-13
2021/11/20 03:12:35;;;;;;;1.00;1.00;;;;;;;;;;7330060;19;161802;-13
2021/11/20 03:15:08;;;;;;;1.10;1.10;;;;;;;;;;7332287;19;162597;-14
2021/11/20 03:17:51;;;;;;;0.93;0.93;;;;;;;;;;7332430;19;154300;-14
2021/11/20 03:20:23;;;;;;;0.98;0.98;;;;;;;;;;7331963;19;153557;-16
2021/11/20 03:22:58;;;;;;;1.00;1.00;;;;;;;;;;7331768;19;162183;-15
2021/11/20 03:25:31;;;;;;;1.75;1.10;;;;;;;;;;7331659;19;162520;-14
2021/11/20 03:28:03;;;;;;;1.10;1.10;;;;;;;;;;7332878;19;154326;-12
2021/11/20 03:30:35;;;;;;;0.95;0.95;;;;;;;;;;7333153;19;153744;-13
2021/11/20 03:33:09;;;;;;;0.98;0.98;;;;;;;;;;7329538;19;161787;-14
2021/11/20 03:35:43;;;;;;;1.20;1.20;;;;;;;;;;7331499;19;162357;-15
2021/11/20 03:38:31;;;;;;;0.88;0.88;;;;;;;;;;7331942;19;154164;-12
2021/11/20 03:41:09;;;;;;;0.90;0.90;;;;;;;;;;7331543;19;153750;-13
2021/11/20 03:43:40;;;;;;;0.90;0.90;;;;;;;;;;7332481;19;161823;-14
2021/11/20 03:46:11;;;;;;;0.90;0.90;;;;;;;;;;7331250;19;162373;-15
2021/11/20 03:48:45;;;;;;;0.80;0.80;;;;;;;;;;7331543;19;154043;-13
2021/11/20 03:51:17;;;;;;;0.80;0.80;;;;;;;;;;7330549;19;153553;-13
2021/11/20 03:53:48;;;;;;;0.90;0.90;;;;;;;;;;7330903;19;162080;-13
2021/11/20 03:56:20;;;;;;;0.80;0.80;;;;;;;;;;7330867;19;162375;-13
2021/11/20 03:58:51;;;;;;;0.85;0.85;;;;;;;;;;7331105;19;154030;-14
2021/11/20 04:01:25;;;;;;;0.82;0.82;;;;;;;;;;7330947;19;153930;-13
2021/11/20 04:03:59;;;;;;;0.80;0.80;;;;;;;;;;7331784;19;161971;-12
2021/11/20 04:06:31;;;;;;;0.70;0.70;;;;;;;;;;7330734;19;162598;-13
2021/11/20 04:09:12;;;;;;;0.93;0.93;;;;;;;;;;7330979;19;154407;-13
2021/11/20 04:11:48;;;;;;;0.80;0.80;;;;;;;;;;7330362;19;153700;-13
2021/11/20 04:14:22;;;;;;;0.70;0.70;;;;;;;;;;7331675;19;161868;-14
2021/11/20 04:16:54;;;;;;;0.80;0.80;;;;;;;;;;7330238;19;162524;-13
2021/11/20 04:19:28;;;;;;;0.95;0.95;;;;;;;;;;7330670;19;154075;-14
2021/11/20 04:21:59;;;;;;;1.00;1.00;;;;;;;;;;7330691;19;153941;-14
2021/11/20 04:24:34;;;;;;;0.80;0.80;;;;;;;;;;7330847;19;161864;-14
2021/11/20 04:27:10;;;;;;;0.77;0.77;;;;;;;;;;7332136;19;162399;-14
2021/11/20 04:30:00;;;;;;;0.80;0.80;;;;;;;;;;7332290;19;154035;-14
2021/11/20 04:32:34;;;;;;;0.80;0.80;;;;;;;;;;7329576;19;153728;-15
2021/11/20 04:35:12;;;;;;;0.70;0.70;;;;;;;;;;7330428;19;161999;-14
2021/11/20 04:37:46;;;;;;;0.65;0.65;;;;;;;;;;7330635;19;162366;-14
2021/11/20 04:40:20;;;;;;;0.73;0.73;;;;;;;;;;7330936;19;154083;-15
2021/11/20 04:42:54;;;;;;;0.80;0.80;;;;;;;;;;7330618;19;153763;-14
2021/11/20 04:45:31;;;;;;;0.75;0.75;;;;;;;;;;7328179;19;161885;-15
2021/11/20 04:48:05;;;;;;;0.65;0.65;;;;;;;;;;7331255;19;162504;-14
2021/11/20 04:51:01;;;;;;;0.80;0.80;;;;;;;;;;7329989;19;153972;-14
2021/11/20 04:53:35;;;;;;;0.80;0.80;;;;;;;;;;7328211;19;153613;-14
2021/11/20 04:56:11;;;;;;;0.80;0.80;;;;;;;;;;7329829;19;161856;-20
2021/11/20 04:58:44;;;;;;;0.80;0.80;;;;;;;;;;7329705;19;162605;-14
2021/11/20 05:01:17;;;;;;;0.80;0.80;;;;;;;;;;7330592;19;154214;-13
2021/11/20 05:03:49;;;;;;;;;;;;;;;;;;7331240;19;153499;-14
2021/11/20 05:06:27;;;;;;;0.80;0.80;;;;;;;;;;7329776;19;162147;-14
2021/11/20 05:09:00;;;;;;;0.70;0.70;;;;;;;;;;7332139;19;162896;-14
2021/11/20 05:11:35;;;;;;;0.70;0.70;;;;;;;;;;7332548;19;154105;-13
2021/11/20 05:14:07;;;;;;;0.70;0.70;;;;;;;;;;7329824;19;153641;-15
2021/11/20 05:16:39;;;;;;;0.80;0.80;;;;;;;;;;7331844;19;161823;-14
2021/11/20 05:19:10;;;;;;;0.80;0.80;;;;;;;;;;7331175;19;162485;-13
2021/11/20 05:21:53;;;;;;;0.70;0.70;;;;;;;;;;7328809;19;154036;-13
2021/11/20 05:24:25;;;;;;;0.80;0.80;;;;;;;;;;7328829;19;153639;-14
2021/11/20 05:27:01;;;;;;;0.80;0.80;;;;;;;;;;7328019;19;161847;-14
2021/11/20 05:29:38;;;;;;;0.70;0.70;;;;;;;;;;7328340;19;162174;-14
2021/11/20 05:32:11;;;;;;;0.60;0.60;;;;;;;;;;7328679;19;154224;-13
2021/11/20 05:34:47;;;;;;;0.70;0.70;;;;;;;;;;7328477;19;153673;-13
2021/11/20 05:37:23;;;;;;;0.60;0.60;;;;;;;;;;7328109;19;161895;-14
2021/11/20 05:39:55;;;;;;;0.63;0.63;;;;;;;;;;7328102;19;162499;-13
2021/11/20 05:42:26;;;;;;;0.73;0.73;;;;;;;;;;7329635;19;154372;-15
2021/11/20 05:44:59;;;;;;;0.70;0.70;;;;;;;;;;7328374;19;153501;-14
2021/11/20 05:47:31;;;;;;;;;;;;;;;;;;7329695;19;161953;-14
2021/11/20 05:50:03;;;;;;;0.65;0.65;;;;;;;;;;7327079;19;162897;-15
2021/11/20 05:52:37;;;;;;;0.80;0.80;;;;;;;;;;7327699;19;153991;-14
2021/11/20 05:55:10;;;;;;;0.60;0.60;;;;;;;;;;7327895;19;153525;-13
2021/11/20 05:57:41;;;;;;;0.60;0.60;;;;;;;;;;7333614;19;162072;-14
2021/11/20 06:00:19;;;;;;;0.60;0.60;;;;;;;;;;7334413;19;162474;-14
2021/11/20 06:02:55;;;;;;;0.82;0.82;;;;;;;;;;7335723;19;154039;-13
2021/11/20 06:05:42;;;;;;;0.60;0.60;;;;;;;;;;7334342;19;153588;-14
2021/11/20 06:08:17;;;;;;;0.63;0.63;;;;;;;;;;7334890;19;162113;-13
2021/11/20 06:10:50;;;;;;;0.60;0.60;;;;;;;;;;7333778;19;162282;-14
2021/11/20 06:13:23;;;;;;;0.50;0.50;;;;;;;;;;7333324;19;154058;-14
2021/11/20 06:16:01;;;;;;;0.70;0.70;;;;;;;;;;7334293;19;153664;-17
2021/11/20 06:18:33;;;;;;;0.60;0.60;;;;;;;;;;7333833;19;161888;-15
2021/11/20 06:21:06;;;;;;;0.50;0.50;;;;;;;;;;7333844;19;162428;-14
2021/11/20 06:23:41;;;;;;;0.65;0.65;;;;;;;;;;7334130;19;154120;-14
2021/11/20 06:26:17;;;;;;;0.60;0.60;;;;;;;;;;7334071;19;153798;-15
2021/11/20 06:28:50;;;;;;;0.60;0.60;;;;;;;;;;7334811;19;161801;-13
2021/11/20 06:31:25;;;;;;;0.50;0.50;;;;;;;;;;7333499;19;162693;-13
2021/11/20 06:34:14;;;;;;;0.50;0.50;;;;;;;;;;7333609;19;154036;-15
2021/11/20 06:36:51;;;;;;;0.55;0.55;;;;;;;;;;7335060;19;153753;-15
2021/11/20 06:40:03;;;;;;;0.50;0.50;;;;;;;;;;7334112;19;161927;-15
2021/11/20 06:42:35;;;;;;;0.60;0.60;;;;;;;;;;7332971;19;162430;-14
2021/11/20 06:45:07;;;;;;;0.70;0.70;;;;;;;;;;7333538;19;154191;-13
2021/11/20 06:47:39;;;;;;;0.65;0.65;;;;;;;;;;7333281;19;153827;-14
2021/11/20 06:50:12;;;;;;;0.60;0.60;;;;;;;;;;7331795;19;161898;-14
2021/11/20 06:53:05;;;;;;;0.70;0.70;;;;;;;;;;7332023;19;162675;-13
2021/11/20 06:56:26;;;;;;;0.43;0.43;;;;;;;;;;7331345;19;154471;-15
2021/11/20 07:00:25;;;;;;;0.50;0.50;;;;;;;;;;7332245;19;153703;-13
2021/11/20 07:02:36;;;;;;;0.55;0.55;;;;;;;;;;7332232;19;161872;-15
2021/11/20 07:05:12;;;;;;;0.60;0.60;;;;;;;;;;7332252;19;162547;-14
2021/11/20 07:07:43;;;;;;;1.00;0.60;;;;;;;;;;7332468;19;153965;-13
2021/11/20 07:10:15;;;;;;;0.50;0.50;;;;;;;;;;7332880;19;154190;-13
2021/11/20 07:12:49;;;;;;;0.50;0.50;;;;;;;;;;7332426;19;161825;-14
2021/11/20 07:15:22;;;;;;;0.60;0.60;;;;;;;;;;7331300;19;162393;-13
2021/11/20 07:17:53;;;;;;;0.50;0.50;;;;;;;;;;7332435;19;154252;-14
2021/11/20 07:20:45;;;;;;;0.60;0.60;;;;;;;;;;7333485;19;153573;-14
2021/11/20 07:23:37;;;;;;;0.63;0.63;;;;;;;;;;7333004;19;162004;-13
2021/11/20 07:26:10;;;;;;;0.60;0.60;;;;;;;;;;7332002;19;162670;-13
2021/11/20 07:28:44;;;;;;;0.50;0.50;;;;;;;;;;7332295;19;154063;-14
2021/11/20 07:31:29;;;;;;;0.50;0.50;;;;;;;;;;7332487;19;153636;-13
2021/11/20 07:34:00;;;;;;;0.60;0.60;;;;;;;;;;7331692;19;161899;-15
2021/11/20 07:36:35;;;;;;;0.60;0.60;;;;;;;;;;7332183;19;162365;-14
2021/11/20 07:39:09;;;;;;;0.55;0.55;;;;;;;;;;7332034;19;154371;-14
2021/11/20 07:41:41;;;;;;;0.40;0.40;;;;;;;;;;7332056;19;153867;-11
2021/11/20 07:44:15;;;;;;;0.50;0.50;;;;;;;;;;7331742;19;161826;-11
2021/11/20 07:46:47;;;;;;;0.50;0.50;;;;;;;;;;7331320;19;163298;-12
2021/11/20 07:49:20;;;;;;;0.57;0.57;;;;;;;;;;7332076;19;154392;-14
2021/11/20 07:51:52;;;;;;;0.50;0.50;;;;;;;;;;7329666;19;153484;-12
2021/11/20 07:54:24;;;;;;;0.55;0.55;;;;;;;;;;7330867;19;162153;-13
2021/11/20 07:57:14;;;;;;;0.50;0.50;;;;;;;;;;7332594;19;162147;-13
2021/11/20 07:59:49;;;;;;;0.52;0.52;;;;;;;;;;7332163;19;154177;-14
2021/11/20 08:02:46;;;;;;;0.60;0.60;;;;;;;;;;7333098;19;153305;-12
2021/11/20 08:05:38;;;;;;;0.57;0.45;;;;;;;;;;7333512;19;161836;-12
2021/11/20 08:08:31;;;;;;;0.40;0.40;;;;;;;;;;7331216;19;162025;-14
2021/11/20 08:11:26;;;;;;;0.50;0.50;;;;;;;;;;7331328;19;154020;-13
2021/11/20 08:13:57;;;;;;;0.45;0.45;;;;;;;;;;7331084;19;153564;-14
2021/11/20 08:16:50;;;;;;;0.50;0.50;;;;;;;;;;7331068;19;161820;-12
2021/11/20 08:19:40;;;;;;;0.57;0.57;;;;;;;;;;7328758;19;162316;-12
2021/11/20 08:22:32;;;;;;;0.40;0.40;;;;;;;;;;7330096;19;154058;-13
2021/11/20 08:25:03;;;;;;;0.47;0.47;;;;;;;;;;7332611;19;153604;-13
2021/11/20 08:27:35;;;;;;;0.40;0.40;;;;;;;;;;7330874;19;161973;-14
2021/11/20 08:30:17;;;;;;;0.40;0.40;;;;;;;;;;7330892;19;162431;-13
2021/11/20 08:32:56;;;;;;;0.40;0.40;;;;;;;;;;7331163;19;154050;-13
2021/11/20 08:35:41;;;;;;;0.45;0.45;;;;;;;;;;7329441;19;153608;-13
2021/11/20 08:38:23;;;;;;;0.47;0.47;;;;;;;;;;7330360;19;161831;-12
2021/11/20 08:41:02;;;;;;;0.40;0.40;;;;;;;;;;7330174;19;162537;-12
2021/11/20 08:43:34;;;;;;;0.40;0.40;;;;;;;;;;7330567;19;153993;-12
2021/11/20 08:46:28;;;;;;;0.43;0.43;;;;;;;;;;7330334;19;153529;-12
2021/11/20 08:49:02;;;;;;;0.43;0.43;;;;;;;;;;7329828;19;161968;-12
2021/11/20 08:51:36;;;;;;;0.50;0.50;;;;;;;;;;7327846;19;162432;-13
2021/11/20 08:54:09;;;;;;;0.52;0.52;;;;;;;;;;7330445;19;154026;-13
2021/11/20 08:56:42;;;;;;;0.50;0.50;;;;;;;;;;7327769;19;153632;-12
2021/11/20 08:59:23;;;;;;;0.40;0.40;;;;;;;;;;7329909;19;161840;-13
2021/11/20 09:02:14;;;;;;;0.40;0.40;;;;;;;;;;7330635;19;162313;-12
2021/11/20 09:05:02;;;;;;;0.38;0.38;;;;;;;;;;7330237;19;154007;-13
2021/11/20 09:07:39;;;;;;;0.40;0.40;;;;;;;;;;7329957;19;153365;-12
2021/11/20 09:10:23;;;;;;;0.38;0.38;;;;;;;;;;7329567;19;161868;-13
2021/11/20 09:12:59;;;;;;;0.50;0.50;;;;;;;;;;7329700;19;162428;-14
2021/11/20 09:15:37;;;;;;;0.40;0.40;;;;;;;;;;7328891;19;154102;-17
2021/11/20 09:18:24;;;;;;;0.40;0.40;;;;;;;;;;7329356;19;153631;-13
2021/11/20 09:20:59;;;;;;;0.40;0.40;;;;;;;;;;7329138;19;162065;-14
2021/11/20 09:24:10;;;;;;;0.40;0.40;;;;;;;;;;7330110;19;162871;-12
2021/11/20 09:26:44;;;;;;;0.40;0.40;;;;;;;;;;7329619;19;154123;-11
2021/11/20 09:29:17;;;;;;;0.40;0.40;;;;;;;;;;7329383;19;153576;-12
2021/11/20 09:31:52;;;;;;;0.50;0.50;;;;;;;;;;7327949;19;162068;-14
2021/11/20 09:34:24;;;;;;;0.47;0.47;;;;;;;;;;7328733;19;163147;-13
2021/11/20 09:37:01;;;;;;;0.50;0.50;;;;;;;;;;7326492;19;154320;-14
2021/11/20 09:39:42;;;;;;;0.40;0.40;;;;;;;;;;7329999;19;153810;-13
2021/11/20 09:42:30;;;;;;;0.40;0.40;;;;;;;;;;7328240;19;162095;-12
2021/11/20 09:45:06;;;;;;;1.63;0.43;;;;;;;;;;7331232;19;162558;-12
2021/11/20 09:47:43;;;;;;;0.57;0.57;;;;;;;;;;7333498;19;154418;-14
2021/11/20 09:50:18;;;;;;;1.10;0.50;;;;;;;;;;7328372;19;153495;-14
2021/11/20 09:52:56;;;;;;;0.40;0.40;;;;;;;;;;7328429;19;133671;-13
2021/11/20 09:55:32;;;;;;;0.57;0.57;;;;;;;;;;7328376;19;162343;-12
2021/11/20 09:58:10;;;;;;;0.50;0.50;;;;;;;;;;7329863;19;154094;-12
2021/11/20 10:01:06;;;;;;;0.40;0.40;;;;;;;;;;7329190;19;153553;-12
2021/11/20 10:03:45;;;;;;;0.43;0.43;;;;;;;;;;7327741;19;162631;-14
2021/11/20 10:06:27;;;;;;;0.40;0.40;;;;;;;;;;7329248;19;162540;-13
2021/11/20 10:09:24;;;;;;;0.43;0.43;;;;;;;;;;7329436;19;154004;-14
2021/11/20 10:12:05;;;;;;;0.50;0.50;;;;;;;;;;7328756;19;153696;-14
2021/11/20 10:14:43;;;;;;;0.40;0.40;;;;;;;;;;7329521;19;163542;-13
2021/11/20 10:17:22;;;;;;;0.38;0.38;;;;;;;;;;7326132;19;162418;-14
2021/11/20 10:19:57;;;;;;;0.40;0.40;;;;;;;;;;7329215;19;154265;-14
2021/11/20 10:22:35;;;;;;;0.50;0.50;;;;;;;;;;7330452;19;153488;-13
2021/11/20 10:25:24;;;;;;;0.75;0.40;;;;;;;;;;7330948;19;161757;-13
2021/11/20 10:28:10;;;;;;;0.50;0.50;;;;;;;;;;7328255;19;162624;-13
2021/11/20 10:30:50;;;;;;;0.40;0.40;;;;;;;;;;7328854;19;154142;-14
2021/11/20 10:33:24;;;;;;;0.30;0.30;;;;;;;;;;7328735;19;153543;-14
2021/11/20 10:36:05;;;;;;;0.30;0.30;;;;;;;;;;7327479;19;161903;-12
2021/11/20 10:38:42;;;;;;;0.40;0.40;;;;;;;;;;7326612;19;162687;-13
2021/11/20 10:41:30;;;;;;;0.40;0.40;;;;;;;;;;7326826;19;153771;-14
2021/11/20 10:44:19;;;;;;;0.40;0.40;;;;;;;;;;7334506;19;153540;-14
2021/11/20 10:47:00;;;;;;;0.40;0.40;;;;;;;;;;7335037;19;162103;-13
2021/11/20 10:49:48;;;;;;;0.40;0.40;;;;;;;;;;7336315;19;162412;-22
2021/11/20 10:52:44;;;;;;;0.30;0.30;;;;;;;;;;7338182;19;154245;-14
2021/11/20 10:55:23;;;;;;;0.30;0.30;;;;;;;;;;7334030;19;153762;-11
2021/11/20 10:58:18;;;;;;;0.40;0.40;;;;;;;;;;7334896;19;161895;-20
2021/11/20 11:01:19;;;;;;;0.40;0.40;;;;;;;;;;7331646;19;162855;-13
2021/11/20 11:03:56;;;;;;;0.40;0.40;;;;;;;;;;7336963;19;154045;-13
2021/11/20 11:06:41;;;;;;;0.40;0.40;;;;;;;;;;7337703;19;153488;-12
2021/11/20 11:09:26;;;;;;;0.50;0.50;;;;;;;;;;7333900;19;162075;-13
2021/11/20 11:12:01;;;;;;;0.40;0.40;;;;;;;;;;7335162;19;162554;-13
2021/11/20 11:14:57;;;;;;;0.40;0.40;;;;;;;;;;7337980;19;154003;-13
2021/11/20 11:17:38;;;;;;;0.40;0.40;;;;;;;;;;7330739;19;153813;-12
2021/11/20 11:20:14;;;;;;;0.43;0.43;;;;;;;;;;7336626;19;162000;-12
2021/11/20 11:22:50;;;;;;;0.40;0.40;;;;;;;;;;7337049;19;162354;-13
2021/11/20 11:25:23;;;;;;;0.30;0.30;;;;;;;;;;7334871;19;153995;-12
2021/11/20 11:28:05;;;;;;;;;;;;;;;;;;7336254;19;153543;-12
2021/11/20 11:30:45;;;;;;;0.40;0.40;;;;;;;;;;7336762;19;162168;-13
2021/11/20 11:33:18;;;;;;;0.40;0.40;;;;;;;;;;7333919;19;162315;-12
2021/11/20 11:35:57;;;;;;;0.40;0.40;;;;;;;;;;7336434;19;153948;-12
2021/11/20 11:39:00;;;;;;;0.40;0.40;;;;;;;;;;7330372;19;153508;-14
2021/11/20 11:41:40;;;;;;;0.40;0.40;;;;;;;;;;7332312;19;161970;-13
2021/11/20 11:44:15;;;;;;;0.40;0.40;;;;;;;;;;7331991;19;162612;-13
2021/11/20 11:46:56;;;;;;;0.40;0.40;;;;;;;;;;7337733;19;154230;-14
2021/11/20 11:50:02;;;;;;;0.40;0.40;;;;;;;;;;7337258;19;153545;-14
2021/11/20 11:52:54;;;;;;;0.30;0.30;;;;;;;;;;7331033;19;161958;-15
2021/11/20 11:55:45;;;;;;;0.30;0.30;;;;;;;;;;7331662;19;162335;-12
2021/11/20 11:58:54;;;;;;;0.50;0.50;;;;;;;;;;7330706;19;153726;-13
2021/11/20 12:01:40;;;;;;;0.38;0.38;;;;;;;;;;7332467;19;153710;-13
2021/11/20 12:04:19;;;;;;;0.40;0.40;;;;;;;;;;7335366;19;162037;-14
2021/11/20 12:07:30;;;;;;;0.50;0.50;;;;;;;;;;7330872;19;162394;-14
2021/11/20 12:10:18;;;;;;;0.40;0.40;;;;;;;;;;7332535;19;153965;-14
2021/11/20 12:13:03;;;;;;;0.40;0.40;;;;;;;;;;7332298;19;153681;-14
2021/11/20 12:15:42;;;;;;;0.40;0.40;;;;;;;;;;7330926;19;161818;-15
2021/11/20 12:18:22;;;;;;;0.30;0.30;;;;;;;;;;7330064;19;162356;-18
2021/11/20 12:21:01;;;;;;;0.43;0.43;;;;;;;;;;7330825;19;154127;-14
2021/11/20 12:23:47;;;;;;;0.68;0.50;;;;;;;;;;7331875;19;153667;-13
2021/11/20 12:26:26;;;;;;;0.40;0.40;;;;;;;;;;7331551;19;161740;-14
2021/11/20 12:29:35;;;;;;;0.38;0.38;;;;;;;;;;7328867;19;162347;-14
2021/11/20 12:32:29;;;;;;;0.40;0.40;;;;;;;;;;7328891;19;154042;-14
2021/11/20 12:35:22;;;;;;;0.32;0.32;;;;;;;;;;7333872;19;153853;-13
2021/11/20 12:38:12;;;;;;;0.40;0.40;;;;;;;;;;7331025;19;161804;-14
2021/11/20 12:40:53;;;;;;;0.30;0.30;;;;;;;;;;7333542;19;162472;-12
2021/11/20 12:44:08;;;;;;;0.30;0.30;;;;;;;;;;7335009;19;153931;-13
2021/11/20 12:47:15;;;;;;;0.30;0.30;;;;;;;;;;7332109;19;153711;-13
2021/11/20 12:50:02;;;;;;;0.63;0.40;;;;;;;;;;7334972;19;161791;-12
2021/11/20 12:52:36;;;;;;;0.47;0.47;;;;;;;;;;7332490;19;162346;-12
2021/11/20 12:55:41;;;;;;;0.40;0.40;;;;;;;;;;7333805;19;154741;-12
2021/11/20 12:58:17;;;;;;;0.32;0.32;;;;;;;;;;7328627;19;153591;-13
2021/11/20 13:00:51;;;;;;;0.30;0.30;;;;;;;;;;7334530;19;161891;-13
2021/11/20 13:03:31;;;;;;;0.20;0.20;;;;;;;;;;7333950;19;163134;-13
2021/11/20 13:06:06;;;;;;;0.40;0.40;;;;;;;;;;7329369;19;153995;-12
2021/11/20 13:08:41;;;;;;;0.47;0.47;;;;;;;;;;7332535;19;153525;-14
2021/11/20 13:11:23;;;;;;;0.30;0.30;;;;;;;;;;7333217;19;161854;-13
2021/11/20 13:14:00;;;;;;;0.30;0.30;;;;;;;;;;7330661;19;162513;-12
2021/11/20 13:16:40;;;;;;;0.30;0.30;;;;;;;;;;7331869;19;155321;-13
2021/11/20 13:19:23;;;;;;;0.68;0.32;;;;;;;;;;7331067;19;153499;-13
2021/11/20 13:22:15;;;;;;;0.35;0.35;;;;;;;;;;7330151;19;161973;-13
2021/11/20 13:24:55;;;;;;;0.30;0.30;;;;;;;;;;7331961;19;162318;-14
2021/11/20 13:27:54;;;;;;;0.40;0.40;;;;;;;;;;7333312;19;154011;-12
2021/11/20 13:30:29;;;;;;;0.40;0.40;;;;;;;;;;7331378;19;153865;-13
2021/11/20 13:33:02;;;;;;;0.30;0.30;;;;;;;;;;7332263;19;162004;-13
2021/11/20 13:35:36;;;;;;;0.40;0.40;;;;;;;;;;7333179;19;162481;-12
2021/11/20 13:38:11;;;;;;;0.30;0.30;;;;;;;;;;7328777;19;154369;-14
2021/11/20 13:40:45;;;;;;;0.40;0.40;;;;;;;;;;7331890;19;153496;-13
2021/11/20 13:43:20;;;;;;;0.45;0.40;;;;;;;;;;7332222;19;162113;-13
2021/11/20 13:45:54;;;;;;;0.30;0.30;;;;;;;;;;7327129;19;162670;-13
2021/11/20 13:48:28;;;;;;;0.30;0.30;;;;;;;;;;7331512;19;154277;-13
2021/11/20 13:51:01;;;;;;;0.40;0.40;;;;;;;;;;7331729;19;153493;-15
2021/11/20 13:53:35;;;;;;;0.30;0.30;;;;;;;;;;7330040;19;162143;-12
2021/11/20 13:56:08;;;;;;;0.40;0.40;;;;;;;;;;7324635;19;162256;-14
2021/11/20 13:58:42;;;;;;;0.30;0.30;;;;;;;;;;7331068;19;154011;-13
2021/11/20 14:01:19;;;;;;;0.32;0.32;;;;;;;;;;7329440;19;153795;-13
2021/11/20 14:03:56;;;;;;;0.30;0.30;;;;;;;;;;7330639;19;161937;-14
2021/11/20 14:06:27;;;;;;;0.40;0.40;;;;;;;;;;7331471;19;162764;-13
2021/11/20 14:09:02;;;;;;;0.40;0.40;;;;;;;;;;7332924;19;154035;-12
2021/11/20 14:11:34;;;;;;;0.30;0.30;;;;;;;;;;7330254;19;153510;-13
2021/11/20 14:14:08;;;;;;;0.30;0.30;;;;;;;;;;7331147;19;161863;-14
2021/11/20 14:16:41;;;;;;;0.32;0.30;;;;;;;;;;7331928;19;162377;-13
2021/11/20 14:19:14;;;;;;;0.30;0.30;;;;;;;;;;7335262;19;154065;-13
2021/11/20 14:21:46;;;;;;;0.30;0.30;;;;;;;;;;7337510;19;153561;-14
2021/11/20 14:24:17;;;;;;;0.30;0.30;;;;;;;;;;7337536;19;161789;-13
2021/11/20 14:26:51;;;;;;;0.40;0.40;;;;;;;;;;7338667;19;162322;-13
2021/11/20 14:29:32;;;;;;;0.30;0.30;;;;;;;;;;7332285;19;154086;-13
2021/11/20 14:32:05;;;;;;;0.65;0.52;;;;;;;;;;7338263;19;153480;-13
2021/11/20 14:34:39;;;;;;;0.35;0.35;;;;;;;;;;7334442;19;161791;-14
2021/11/20 14:37:19;;;;;;;0.40;0.30;;;;;;;;;;7334325;19;162328;-13
2021/11/20 14:39:54;;;;;;;0.40;0.40;;;;;;;;;;7333249;19;154399;-13
2021/11/20 14:42:28;;;;;;;0.35;0.35;;;;;;;;;;7334526;19;153450;-13
2021/11/20 14:45:11;;;;;;;0.40;0.40;;;;;;;;;;7333969;19;162113;-14
2021/11/20 14:47:45;;;;;;;0.47;0.47;;;;;;;;;;7336419;19;162190;-14
2021/11/20 14:50:20;;;;;;;0.30;0.30;;;;;;;;;;7333936;19;153995;-14
2021/11/20 14:53:02;;;;;;;0.52;0.52;;;;;;;;;;7333011;19;153586;-14
2021/11/20 14:55:36;;;;;;;0.30;0.30;;;;;;;;;;7333860;19;161945;-14
2021/11/20 14:58:11;;;;;;;0.40;0.40;;;;;;;;;;7333872;19;162722;-14
2021/11/20 15:00:46;;;;;;;0.40;0.40;;;;;;;;;;7332080;19;153957;-13
2021/11/20 15:03:18;;;;;;;0.32;0.32;;;;;;;;;;7334084;19;153589;-14
2021/11/20 15:05:50;;;;;;;1.40;0.40;;;;;;;;;;7332328;19;162055;-15
2021/11/20 15:08:21;;;;;;;0.43;0.40;;;;;;;;;;7334054;19;162451;-14
2021/11/20 15:10:52;;;;;;;0.30;0.30;;;;;;;;;;7336452;19;153961;-14
2021/11/20 15:13:24;;;;;;;0.40;0.40;;;;;;;;;;7333996;19;153503;-14
2021/11/20 15:15:58;;;;;;;0.30;0.30;;;;;;;;;;7333731;19;163248;-14
2021/11/20 15:18:29;;;;;;;0.68;0.35;;;;;;;;;;7333709;19;162689;-14
2021/11/20 15:21:01;;;;;;;0.40;0.40;;;;;;;;;;7330468;19;154078;-14
2021/11/20 15:23:32;;;;;;;0.38;0.38;;;;;;;;;;7334030;19;153735;-14
2021/11/20 15:26:04;;;;;;;0.35;0.35;;;;;;;;;;7333438;19;161814;-14
2021/11/20 15:28:36;;;;;;;0.30;0.30;;;;;;;;;;7332065;19;162416;-19
2021/11/20 15:31:10;;;;;;;0.32;0.32;;;;;;;;;;7333640;19;153956;-14
2021/11/20 15:33:42;;;;;;;0.30;0.30;;;;;;;;;;7333415;19;153468;-13
2021/11/20 15:36:13;;;;;;;0.60;0.30;;;;;;;;;;7332956;19;162085;-14
2021/11/20 15:38:44;;;;;;;1.02;0.40;;;;;;;;;;7332987;19;162346;-13